Time;durP1;ratioP1;P1;durP2;ratioP2;P2;SDS_P1;SDS_P2;PMS_P1;PMS_P2;Temp;Humidity;BMP_temperature;BMP_pressure;BME280_temperature;BME280_humidity;BME280_pressure;Samples;Min_cycle;Max_cycle;Signal;HPM_P1;HPM_P2
2022/11/27 00:01:17;;;;;;;12.52;4.53;;;6.50;99.90;;;;;;4963970;28;20402;-84
2022/11/27 00:03:43;;;;;;;19.63;5.07;;;6.60;99.90;;;;;;4967934;28;20125;-84
2022/11/27 00:06:14;;;;;;;14.68;6.10;;;6.50;99.90;;;;;;4966205;28;20453;-83
2022/11/27 00:08:40;;;;;;;13.18;4.85;;;6.50;99.90;;;;;;4960782;28;20030;-84
2022/11/27 00:11:08;;;;;;;12.55;4.85;;;6.50;99.90;;;;;;4984540;28;20034;-84
2022/11/27 00:13:35;;;;;;;18.05;5.50;;;6.60;99.90;;;;;;4963628;28;20070;-84
2022/11/27 00:16:01;;;;;;;17.63;4.80;;;7.30;99.90;;;;;;4977029;28;20039;-84
2022/11/27 00:18:26;;;;;;;13.52;4.50;;;6.50;99.90;;;;;;4971084;28;20044;-83
2022/11/27 00:20:52;;;;;;;17.73;4.60;;;6.70;99.90;;;;;;4966151;28;20034;-83
2022/11/27 00:23:18;;;;;;;9.70;3.53;;;6.50;99.90;;;;;;4992147;28;20154;-84
2022/11/27 00:25:52;;;;;;;11.67;4.00;;;6.50;99.90;;;;;;4969695;28;20317;-83
2022/11/27 00:28:19;;;;;;;12.63;4.72;;;6.60;99.90;;;;;;4957576;28;20039;-84
2022/11/27 00:30:45;;;;;;;;;;;6.60;99.90;;;;;;4962688;28;20089;-84
2022/11/27 00:33:11;;;;;;;18.55;4.25;;;6.60;99.90;;;;;;4978553;28;19918;-83
2022/11/27 00:35:40;;;;;;;14.60;4.90;;;6.60;99.90;;;;;;4959631;28;20038;-83
2022/11/27 00:38:06;;;;;;;15.50;4.35;;;6.50;99.90;;;;;;4968245;28;20045;-83
2022/11/27 00:40:32;;;;;;;12.70;3.95;;;6.60;99.90;;;;;;5001095;28;20046;-83
2022/11/27 00:42:57;;;;;;;12.83;4.57;;;6.60;99.90;;;;;;4974842;28;20038;-83
2022/11/27 00:45:23;;;;;;;17.27;4.33;;;6.60;99.90;;;;;;4988711;28;20286;-83
2022/11/27 00:47:49;;;;;;;14.87;4.83;;;6.50;99.90;;;;;;4982603;28;20125;-83
2022/11/27 00:50:15;;;;;;;12.20;4.33;;;6.40;99.90;;;;;;4980950;28;20038;-84
2022/11/27 00:52:41;;;;;;;8.98;3.65;;;6.40;99.90;;;;;;4984966;28;20344;-84
2022/11/27 00:55:07;;;;;;;15.10;5.00;;;7.60;99.90;;;;;;4989854;28;20449;-84
2022/11/27 00:57:33;;;;;;;11.23;4.38;;;6.30;99.90;;;;;;4971649;28;20590;-85
2022/11/27 00:59:59;;;;;;;15.02;4.22;;;6.40;99.90;;;;;;4942201;28;20129;-85
2022/11/27 01:02:24;;;;;;;12.77;5.27;;;6.50;99.90;;;;;;4958200;28;20395;-85
2022/11/27 01:04:50;;;;;;;12.95;4.70;;;6.70;99.90;;;;;;4978370;28;20042;-85
2022/11/27 01:07:16;;;;;;;12.55;4.38;;;6.60;99.90;;;;;;4962199;28;20514;-85
2022/11/27 01:09:42;;;;;;;12.20;4.33;;;7.00;99.90;;;;;;4989527;28;20056;-85
2022/11/27 01:12:07;;;;;;;12.97;4.00;;;6.20;99.90;;;;;;4980091;28;20328;-84
2022/11/27 01:14:33;;;;;;;11.00;5.07;;;6.20;99.90;;;;;;4956851;28;20356;-84
2022/11/27 01:16:59;;;;;;;13.93;4.57;;;6.20;99.90;;;;;;4966759;28;20061;-84
2022/11/27 01:19:25;;;;;;;10.30;4.30;;;6.20;99.90;;;;;;4963782;28;20027;-85
2022/11/27 01:21:51;;;;;;;13.85;4.47;;;6.20;99.90;;;;;;4981996;28;20058;-84
2022/11/27 01:24:17;;;;;;;11.57;4.55;;;6.20;99.90;;;;;;4977807;28;20558;-84
2022/11/27 01:26:43;;;;;;;16.30;5.45;;;6.10;99.90;;;;;;4989057;28;20402;-84
2022/11/27 01:29:10;;;;;;;15.35;5.03;;;6.10;99.90;;;;;;4980246;28;20152;-85
2022/11/27 01:31:36;;;;;;;12.48;3.88;;;6.20;99.90;;;;;;4970410;28;20061;-84
2022/11/27 01:34:04;;;;;;;11.73;4.75;;;6.20;99.90;;;;;;4970936;28;20038;-84
2022/11/27 01:36:31;;;;;;;12.65;4.65;;;6.10;99.90;;;;;;4975272;28;20716;-84
2022/11/27 01:38:57;;;;;;;10.82;5.63;;;6.20;99.90;;;;;;4970654;28;20038;-85
2022/11/27 01:41:24;;;;;;;;;;;6.10;99.90;;;;;;4966276;28;20038;-84
2022/11/27 01:43:51;;;;;;;13.10;3.97;;;6.10;99.90;;;;;;4970443;28;20362;-84
2022/11/27 01:46:31;;;;;;;14.48;4.80;;;6.10;99.90;;;;;;4974652;28;20042;-84
2022/11/27 01:49:09;;;;;;;8.82;4.05;;;6.10;99.90;;;;;;4988863;28;20056;-84
2022/11/27 01:51:45;;;;;;;11.80;5.10;;;6.00;99.90;;;;;;4989081;28;20042;-84
2022/11/27 01:54:15;;;;;;;10.90;4.40;;;6.00;99.90;;;;;;4979280;28;20045;-84
2022/11/27 01:56:44;;;;;;;17.85;5.88;;;6.00;99.90;;;;;;4976535;28;20035;-84
2022/11/27 01:59:11;;;;;;;13.95;4.97;;;6.10;99.90;;;;;;4986210;28;20196;-84
2022/11/27 02:01:37;;;;;;;11.77;4.32;;;5.90;99.90;;;;;;4958866;28;20734;-84
2022/11/27 02:04:03;;;;;;;13.90;4.18;;;5.90;99.90;;;;;;4967396;28;20041;-84
2022/11/27 02:06:29;;;;;;;15.07;4.68;;;5.90;99.90;;;;;;4977968;28;20130;-85
2022/11/27 02:08:55;;;;;;;9.38;3.95;;;5.90;99.90;;;;;;4977570;28;20125;-85
2022/11/27 02:11:54;;;;;;;16.92;5.30;;;5.90;99.90;;;;;;4955599;28;20122;-85
2022/11/27 02:14:23;;;;;;;12.00;4.18;;;5.90;99.90;;;;;;4989563;28;20042;-85
2022/11/27 02:17:01;;;;;;;11.35;4.72;;;6.00;99.90;;;;;;4989108;28;20069;-85
2022/11/27 02:20:12;;;;;;;11.60;4.50;;;6.10;99.90;;;;;;4966279;28;20034;-85
2022/11/27 02:22:53;;;;;;;14.38;4.47;;;6.10;99.90;;;;;;4939493;28;20042;-83
2022/11/27 02:25:32;;;;;;;9.93;4.18;;;6.10;99.90;;;;;;4989189;28;20095;-83
2022/11/27 02:28:24;;;;;;;11.13;4.50;;;6.10;99.90;;;;;;4988389;28;20200;-84
2022/11/27 02:31:24;;;;;;;11.88;4.80;;;6.10;99.90;;;;;;4989771;28;20038;-84
2022/11/27 02:33:57;;;;;;;14.50;4.88;;;6.20;99.90;;;;;;4957660;28;20108;-83
2022/11/27 02:36:29;;;;;;;13.35;4.07;;;6.10;99.90;;;;;;4964395;28;20050;-84
2022/11/27 02:39:07;;;;;;;9.02;4.45;;;6.80;99.90;;;;;;4968211;28;20133;-84
2022/11/27 02:41:43;;;;;;;14.68;5.45;;;6.20;99.90;;;;;;4976250;28;20035;-83
2022/11/27 02:44:10;;;;;;;9.82;3.72;;;6.90;99.90;;;;;;4980742;28;20038;-83
2022/11/27 02:46:37;;;;;;;11.63;4.65;;;6.20;99.90;;;;;;4984620;28;20035;-83
2022/11/27 02:49:16;;;;;;;10.88;3.95;;;6.20;99.90;;;;;;4960469;28;20510;-83
2022/11/27 02:51:47;;;;;;;9.50;3.72;;;6.20;99.90;;;;;;4980462;28;20541;-83
2022/11/27 02:54:19;;;;;;;11.20;4.22;;;6.40;99.90;;;;;;4967517;28;20046;-83
2022/11/27 02:56:47;;;;;;;7.05;3.78;;;6.40;99.90;;;;;;4965256;28;20038;-84
2022/11/27 02:59:15;;;;;;;9.32;4.22;;;6.40;99.90;;;;;;4975590;28;20402;-84
2022/11/27 03:01:54;;;;;;;18.63;4.57;;;6.30;99.90;;;;;;4978671;28;20376;-84
2022/11/27 03:04:25;;;;;;;13.07;4.97;;;6.30;99.90;;;;;;5007268;28;20042;-84
2022/11/27 03:06:56;;;;;;;10.13;4.20;;;7.00;99.90;;;;;;4980382;28;20043;-84
2022/11/27 03:09:45;;;;;;;15.85;5.25;;;7.10;99.90;;;;;;4969052;28;20115;-84
2022/11/27 03:12:12;;;;;;;15.93;4.80;;;6.30;99.90;;;;;;4966788;28;20107;-84
2022/11/27 03:14:40;;;;;;;12.32;3.80;;;7.40;99.90;;;;;;4983300;28;20443;-84
2022/11/27 03:17:30;;;;;;;17.20;4.18;;;6.30;99.90;;;;;;4987414;28;20094;-84
2022/11/27 03:20:20;;;;;;;10.80;3.78;;;6.20;99.90;;;;;;4982039;28;20559;-84
2022/11/27 03:22:46;;;;;;;12.02;4.25;;;6.20;99.90;;;;;;4991432;28;20034;-84
2022/11/27 03:25:12;;;;;;;10.90;4.10;;;7.40;99.90;;;;;;4991882;28;20099;-84
2022/11/27 03:27:45;;;;;;;8.98;3.38;;;6.20;99.90;;;;;;4991745;28;20034;-84
2022/11/27 03:30:13;;;;;;;12.95;4.40;;;6.20;99.90;;;;;;4984665;28;20072;-84
2022/11/27 03:32:38;;;;;;;14.65;4.10;;;6.30;99.90;;;;;;4985407;28;20039;-84
2022/11/27 03:35:08;;;;;;;12.57;4.32;;;7.30;99.90;;;;;;4957766;28;20038;-84
2022/11/27 03:37:34;;;;;;;11.55;3.78;;;6.30;99.90;;;;;;4967591;28;20034;-83
2022/11/27 03:40:00;;;;;;;11.13;3.90;;;7.60;99.90;;;;;;4969289;28;20034;-84
2022/11/27 03:42:51;;;;;;;9.48;3.75;;;6.30;99.90;;;;;;4976212;28;20034;-84
2022/11/27 03:45:32;;;;;;;13.95;4.55;;;6.30;99.90;;;;;;4972131;28;20042;-84
2022/11/27 03:48:13;;;;;;;11.10;3.90;;;6.40;99.90;;;;;;4982915;28;20546;-84
2022/11/27 03:51:19;;;;;;;13.13;4.05;;;6.30;99.90;;;;;;4981609;28;20483;-84
2022/11/27 03:54:09;;;;;;;9.65;3.80;;;6.30;99.90;;;;;;4992939;28;20406;-84
2022/11/27 03:56:50;;;;;;;8.63;3.53;;;6.40;99.90;;;;;;4968142;28;20046;-84
2022/11/27 03:59:19;;;;;;;18.50;4.57;;;6.30;99.90;;;;;;4984981;28;20133;-84
2022/11/27 04:01:45;;;;;;;16.58;4.90;;;6.40;99.90;;;;;;4983287;28;20034;-84
2022/11/27 04:04:11;;;;;;;11.60;3.97;;;6.30;99.90;;;;;;4991922;28;20034;-85
2022/11/27 04:06:37;;;;;;;8.82;3.67;;;6.40;99.90;;;;;;4987924;28;20100;-85
2022/11/27 04:09:03;;;;;;;9.70;4.15;;;6.30;99.90;;;;;;4992306;28;20034;-83
2022/11/27 04:11:28;;;;;;;8.02;3.55;;;7.20;99.90;;;;;;4991514;28;20088;-83
2022/11/27 04:13:54;;;;;;;10.23;3.70;;;7.00;99.90;;;;;;4988949;28;20061;-84
2022/11/27 04:16:20;;;;;;;9.70;3.33;;;6.30;99.90;;;;;;4966986;28;20038;-84
2022/11/27 04:18:46;;;;;;;11.00;3.70;;;6.30;99.90;;;;;;4972334;28;20047;-84
2022/11/27 04:21:11;;;;;;;7.85;3.38;;;6.30;99.90;;;;;;4990315;28;20034;-84
2022/11/27 04:23:38;;;;;;;9.67;3.77;;;6.50;99.90;;;;;;4965221;28;20042;-84
2022/11/27 04:26:04;;;;;;;;;;;7.00;99.90;;;;;;4958880;28;20322;-84
2022/11/27 04:28:30;;;;;;;12.48;3.30;;;6.30;99.90;;;;;;4967423;28;19954;-84
2022/11/27 04:30:56;;;;;;;9.23;3.08;;;6.30;99.90;;;;;;4965134;28;20062;-84
2022/11/27 04:33:22;;;;;;;7.90;3.38;;;6.70;99.90;;;;;;4976736;28;20045;-84
2022/11/27 04:35:48;;;;;;;15.38;3.80;;;6.30;99.90;;;;;;4965284;28;20034;-84
2022/11/27 04:38:14;;;;;;;7.60;3.03;;;7.40;99.90;;;;;;4976007;28;20039;-84
2022/11/27 04:40:40;;;;;;;12.80;4.10;;;6.20;99.90;;;;;;4967307;28;20030;-84
2022/11/27 04:43:05;;;;;;;10.93;3.88;;;7.10;99.90;;;;;;4989983;28;20698;-84
2022/11/27 04:45:31;;;;;;;10.00;3.47;;;6.30;99.90;;;;;;4958337;28;20398;-84
2022/11/27 04:47:57;;;;;;;6.90;2.95;;;6.30;99.90;;;;;;4989958;28;20297;-84
2022/11/27 04:50:23;;;;;;;9.63;3.22;;;6.40;99.90;;;;;;4962532;28;20038;-84
2022/11/27 04:52:49;;;;;;;7.07;3.45;;;6.30;99.90;;;;;;4963259;28;20044;-84
2022/11/27 04:55:14;;;;;;;10.48;3.17;;;6.30;99.90;;;;;;4962211;28;20463;-84
2022/11/27 04:57:40;;;;;;;12.73;3.20;;;6.30;99.90;;;;;;4962472;28;20043;-84
2022/11/27 05:00:07;;;;;;;6.93;4.20;;;6.30;99.90;;;;;;4959533;28;20050;-84
2022/11/27 05:02:32;;;;;;;;;;;6.30;99.90;;;;;;4974859;28;20049;-84
2022/11/27 05:04:58;;;;;;;9.38;2.85;;;6.30;99.90;;;;;;4980952;28;20356;-84
2022/11/27 05:07:24;;;;;;;9.93;3.72;;;6.20;99.90;;;;;;4965112;28;20506;-84
2022/11/27 05:09:50;;;;;;;9.25;2.65;;;6.50;99.90;;;;;;4990603;28;20042;-84
2022/11/27 05:12:16;;;;;;;7.93;3.72;;;7.40;99.90;;;;;;4971349;28;20447;-84
2022/11/27 05:14:41;;;;;;;8.65;2.80;;;6.30;99.90;;;;;;4953592;28;20036;-84
2022/11/27 05:17:08;;;;;;;8.10;3.00;;;6.30;99.90;;;;;;4962167;28;20034;-84
2022/11/27 05:19:34;;;;;;;13.70;4.65;;;7.10;99.90;;;;;;4967906;28;20042;-84
2022/11/27 05:22:00;;;;;;;9.35;3.45;;;6.20;99.90;;;;;;4967751;28;20100;-84
2022/11/27 05:24:27;;;;;;;10.00;3.17;;;6.20;99.90;;;;;;4978754;28;20034;-84
2022/11/27 05:26:54;;;;;;;6.68;2.90;;;6.20;99.90;;;;;;4967495;28;20104;-85
2022/11/27 05:29:21;;;;;;;10.25;3.22;;;6.10;99.90;;;;;;4967606;28;20038;-84
2022/11/27 05:31:46;;;;;;;10.20;3.47;;;7.50;99.90;;;;;;4983919;28;20402;-84
2022/11/27 05:34:13;;;;;;;10.98;3.13;;;6.20;99.90;;;;;;4974191;28;20038;-84
2022/11/27 05:36:39;;;;;;;12.82;3.40;;;6.10;99.90;;;;;;4970360;28;20037;-84
2022/11/27 05:39:07;;;;;;;9.18;3.08;;;6.70;99.90;;;;;;4983175;28;20193;-85
2022/11/27 05:41:34;;;;;;;10.10;3.08;;;6.10;99.90;;;;;;4983188;28;20035;-84
2022/11/27 05:44:00;;;;;;;6.93;2.90;;;6.80;99.90;;;;;;4969125;28;20031;-84
2022/11/27 05:46:26;;;;;;;6.40;2.75;;;6.20;99.90;;;;;;4966901;28;20104;-84
2022/11/27 05:48:52;;;;;;;8.88;3.10;;;7.30;99.90;;;;;;4965034;28;20043;-84
2022/11/27 05:51:18;;;;;;;8.82;2.83;;;7.00;99.90;;;;;;4967184;28;20034;-84
2022/11/27 05:53:44;;;;;;;6.60;2.42;;;6.10;99.90;;;;;;4974212;28;20065;-85
2022/11/27 05:56:13;;;;;;;7.85;2.50;;;6.10;99.90;;;;;;4966847;28;20049;-84
2022/11/27 05:58:40;;;;;;;4.75;2.55;;;6.10;99.90;;;;;;4984524;28;20041;-84
2022/11/27 06:01:07;;;;;;;9.98;2.85;;;6.10;99.90;;;;;;4961800;28;20096;-85
2022/11/27 06:03:34;;;;;;;5.68;2.50;;;6.10;99.90;;;;;;4988100;28;20061;-85
2022/11/27 06:06:09;;;;;;;8.15;2.58;;;6.10;99.90;;;;;;4980553;28;20081;-85
2022/11/27 06:08:37;;;;;;;10.10;2.88;;;6.20;99.90;;;;;;4952917;28;20038;-85
2022/11/27 06:11:11;;;;;;;9.63;2.92;;;6.10;99.90;;;;;;4986915;28;20053;-85
2022/11/27 06:13:37;;;;;;;7.88;2.60;;;6.80;99.90;;;;;;4967690;28;20038;-84
2022/11/27 06:16:15;;;;;;;8.70;2.95;;;6.10;99.90;;;;;;4959302;28;20060;-84
2022/11/27 06:18:41;;;;;;;8.95;3.05;;;6.30;99.90;;;;;;4980336;28;20041;-84
2022/11/27 06:21:13;;;;;;;5.07;2.78;;;6.20;99.90;;;;;;4974955;28;20125;-84
2022/11/27 06:23:39;;;;;;;8.18;2.75;;;6.50;99.90;;;;;;4988990;28;20096;-84
2022/11/27 06:26:16;;;;;;;11.63;3.08;;;6.30;99.90;;;;;;4973122;28;20042;-84
2022/11/27 06:28:43;;;;;;;5.72;2.50;;;6.10;99.90;;;;;;4957219;28;20053;-84
2022/11/27 06:31:11;;;;;;;9.68;3.00;;;6.10;99.90;;;;;;4983625;28;20043;-84
2022/11/27 06:33:37;;;;;;;4.60;2.50;;;6.10;99.90;;;;;;4965344;28;20057;-86
2022/11/27 06:36:04;;;;;;;8.93;2.92;;;6.10;99.90;;;;;;4960891;28;20137;-85
2022/11/27 06:38:35;;;;;;;6.90;2.53;;;6.10;99.90;;;;;;4986934;28;20045;-85
2022/11/27 06:41:12;;;;;;;7.80;2.80;;;6.10;99.90;;;;;;4957523;28;20224;-85
2022/11/27 06:43:38;;;;;;;7.32;2.72;;;6.10;99.90;;;;;;4972003;28;20034;-85
2022/11/27 06:46:06;;;;;;;5.03;2.33;;;6.10;99.90;;;;;;4962663;28;20046;-84
2022/11/27 06:48:33;;;;;;;9.88;3.53;;;6.00;99.90;;;;;;4981454;28;20521;-85
2022/11/27 06:50:59;;;;;;;;;;;6.00;99.90;;;;;;4979337;28;20037;-84
2022/11/27 06:53:25;;;;;;;7.13;2.73;;;6.10;99.90;;;;;;4987895;28;19922;-84
2022/11/27 06:55:51;;;;;;;5.40;2.55;;;6.20;99.90;;;;;;4963930;28;20514;-84
2022/11/27 06:58:16;;;;;;;7.00;3.10;;;7.10;99.90;;;;;;4949106;28;20035;-84
2022/11/27 07:00:42;;;;;;;7.33;2.50;;;7.40;99.90;;;;;;4976317;28;20134;-84
2022/11/27 07:03:08;;;;;;;9.03;2.93;;;6.10;99.90;;;;;;4978479;28;20097;-84
2022/11/27 07:05:35;;;;;;;8.65;2.92;;;6.20;99.90;;;;;;4972101;28;20793;-84
2022/11/27 07:08:00;;;;;;;12.57;3.42;;;7.10;99.90;;;;;;4978970;28;20478;-85
2022/11/27 07:10:26;;;;;;;9.60;2.93;;;6.10;99.90;;;;;;4955760;28;20154;-84
2022/11/27 07:12:52;;;;;;;7.30;2.83;;;6.10;99.90;;;;;;4962865;28;20285;-84
2022/11/27 07:15:18;;;;;;;9.85;2.80;;;6.10;99.90;;;;;;4958604;28;20093;-84
2022/11/27 07:17:43;;;;;;;10.77;3.20;;;6.00;99.90;;;;;;4988780;28;20053;-84
2022/11/27 07:20:09;;;;;;;7.38;2.92;;;6.10;99.90;;;;;;4967697;28;20398;-84
2022/11/27 07:22:35;;;;;;;6.10;2.90;;;6.00;99.90;;;;;;4963211;28;20085;-85
2022/11/27 07:25:01;;;;;;;6.23;2.70;;;6.10;99.90;;;;;;4988711;28;20045;-84
2022/11/27 07:27:26;;;;;;;5.27;2.33;;;6.00;99.90;;;;;;4962260;28;20282;-84
2022/11/27 07:29:52;;;;;;;11.17;2.90;;;6.00;99.90;;;;;;4965317;28;20134;-85
2022/11/27 07:32:18;;;;;;;5.03;2.90;;;6.10;99.90;;;;;;4963343;28;20039;-85
2022/11/27 07:34:43;;;;;;;6.27;2.30;;;6.10;99.90;;;;;;4962961;28;20314;-84
2022/11/27 07:37:09;;;;;;;9.23;3.03;;;6.10;99.90;;;;;;4980895;28;20101;-84
2022/11/27 07:39:35;;;;;;;6.83;2.47;;;6.10;99.90;;;;;;4965190;28;20038;-86
2022/11/27 07:42:00;;;;;;;6.33;2.80;;;6.10;99.90;;;;;;4957109;28;20034;-84
2022/11/27 07:44:26;;;;;;;10.33;3.17;;;6.00;99.90;;;;;;4963198;28;20312;-85
2022/11/27 07:46:52;;;;;;;6.90;3.27;;;6.10;99.90;;;;;;4971370;28;20039;-84
2022/11/27 07:49:17;;;;;;;12.13;3.37;;;6.20;99.90;;;;;;4965780;28;20670;-85
2022/11/27 07:51:43;;;;;;;9.87;2.97;;;6.10;99.90;;;;;;4971540;28;20054;-85
2022/11/27 07:54:09;;;;;;;10.25;3.15;;;6.10;99.90;;;;;;4959157;28;20289;-84
2022/11/27 07:56:34;;;;;;;10.05;3.70;;;7.30;99.90;;;;;;4968004;28;20066;-84
2022/11/27 07:59:00;;;;;;;7.43;2.90;;;7.00;99.90;;;;;;4976785;28;20035;-84
2022/11/27 08:01:26;;;;;;;12.98;4.03;;;6.10;99.90;;;;;;4969911;28;20038;-84
2022/11/27 08:03:51;;;;;;;6.80;3.20;;;6.40;99.90;;;;;;4970494;28;20122;-84
2022/11/27 08:06:25;;;;;;;7.70;3.10;;;6.10;99.90;;;;;;4969967;28;20430;-84
2022/11/27 08:08:54;;;;;;;7.53;3.03;;;6.20;99.90;;;;;;4968346;28;20042;-84
2022/11/27 08:11:28;;;;;;;7.72;3.35;;;6.30;99.90;;;;;;4986525;28;20043;-85
2022/11/27 08:14:00;;;;;;;8.80;3.10;;;6.30;99.90;;;;;;4973261;28;20042;-84
2022/11/27 08:16:27;;;;;;;7.78;3.13;;;6.30;99.90;;;;;;4961204;28;20042;-85
2022/11/27 08:18:53;;;;;;;10.88;3.55;;;6.30;99.90;;;;;;4964205;28;20094;-85
2022/11/27 08:21:19;;;;;;;12.32;3.53;;;6.40;99.90;;;;;;4966354;28;20069;-85
2022/11/27 08:23:44;;;;;;;6.72;3.80;;;6.30;99.90;;;;;;4971124;28;20050;-85
2022/11/27 08:26:11;;;;;;;8.77;2.83;;;6.30;99.90;;;;;;4964154;28;20446;-85
2022/11/27 08:28:38;;;;;;;11.20;3.50;;;6.30;99.90;;;;;;4977473;28;20057;-84
2022/11/27 08:31:05;;;;;;;11.27;3.55;;;6.40;99.90;;;;;;4980358;28;20518;-85
2022/11/27 08:33:31;;;;;;;9.27;3.58;;;6.20;99.90;;;;;;4979318;28;20074;-82
2022/11/27 08:35:57;;;;;;;12.50;3.42;;;6.30;99.90;;;;;;4965796;28;20039;-83
2022/11/27 08:38:23;;;;;;;7.10;3.40;;;6.40;99.90;;;;;;4971110;28;20038;-83
2022/11/27 08:40:59;;;;;;;;;;;6.20;99.90;;;;;;4967034;28;20077;-84
2022/11/27 08:43:26;;;;;;;9.30;3.38;;;6.20;99.90;;;;;;4982168;28;19941;-83
2022/11/27 08:45:52;;;;;;;;;;;6.30;99.90;;;;;;4993248;28;20092;-82
2022/11/27 08:48:18;;;;;;;8.80;3.10;;;6.20;99.90;;;;;;4984817;28;20012;-83
2022/11/27 08:50:45;;;;;;;14.43;4.43;;;6.20;99.90;;;;;;4964174;28;20521;-83
2022/11/27 08:53:11;;;;;;;8.43;3.30;;;6.20;99.90;;;;;;4980457;28;20043;-82
2022/11/27 08:55:36;;;;;;;10.70;3.58;;;6.20;99.90;;;;;;4968267;28;20043;-82
2022/11/27 08:58:02;;;;;;;10.65;3.90;;;6.40;99.90;;;;;;4970726;28;20517;-81
2022/11/27 09:00:30;;;;;;;11.57;3.40;;;7.10;99.90;;;;;;4963589;28;20058;-81
2022/11/27 09:02:57;;;;;;;8.15;3.70;;;6.30;99.90;;;;;;4992309;28;20030;-82
2022/11/27 09:05:23;;;;;;;7.78;3.67;;;6.70;99.90;;;;;;4982658;28;20039;-83
2022/11/27 09:07:49;;;;;;;14.65;4.53;;;6.30;99.90;;;;;;4962468;28;20406;-85
2022/11/27 09:10:15;;;;;;;10.07;3.72;;;6.30;99.90;;;;;;4972331;28;20490;-84
2022/11/27 09:12:43;;;;;;;11.65;3.83;;;6.30;99.90;;;;;;4968726;28;20125;-84
2022/11/27 09:15:10;;;;;;;9.38;3.33;;;7.30;99.90;;;;;;4960200;28;20097;-83
2022/11/27 09:17:35;;;;;;;11.93;3.40;;;6.30;99.90;;;;;;4969460;28;20038;-87
2022/11/27 09:20:01;;;;;;;7.47;3.55;;;6.30;99.90;;;;;;4947859;28;20057;-85
2022/11/27 09:22:27;;;;;;;8.48;3.88;;;7.10;99.90;;;;;;4951565;28;21710;-85
2022/11/27 09:24:53;;;;;;;11.53;3.97;;;6.30;99.90;;;;;;4952146;28;20042;-85
2022/11/27 09:27:18;;;;;;;11.33;3.70;;;6.30;99.90;;;;;;4965515;28;20285;-85
2022/11/27 09:29:44;;;;;;;9.13;3.50;;;7.40;99.90;;;;;;4964744;28;20073;-85
2022/11/27 09:32:10;;;;;;;10.18;4.60;;;6.30;99.90;;;;;;4962186;28;20038;-89
2022/11/27 09:34:36;;;;;;;9.35;3.33;;;6.30;99.90;;;;;;4967597;28;20450;-84
2022/11/27 09:37:03;;;;;;;10.93;4.20;;;6.90;99.90;;;;;;4969745;28;20045;-84
2022/11/27 09:39:32;;;;;;;12.65;4.03;;;6.30;99.90;;;;;;4960108;28;20325;-82
2022/11/27 09:42:00;;;;;;;13.90;4.97;;;6.30;99.90;;;;;;4962058;28;20088;-81
2022/11/27 09:44:45;;;;;;;11.57;4.68;;;6.30;99.90;;;;;;4980254;28;20548;-83
2022/11/27 09:47:17;;;;;;;10.60;3.45;;;6.20;99.90;;;;;;4975964;28;20066;-82
2022/11/27 09:50:01;;;;;;;11.68;3.83;;;6.70;99.90;;;;;;4978487;28;20172;-83
2022/11/27 09:52:48;;;;;;;11.43;4.10;;;6.30;99.90;;;;;;4972329;28;20034;-82
2022/11/27 09:55:32;;;;;;;9.57;3.80;;;6.30;99.90;;;;;;4972035;28;20090;-80
2022/11/27 09:58:06;;;;;;;12.38;4.05;;;6.30;99.90;;;;;;4987397;28;20038;-81
2022/11/27 10:00:32;;;;;;;9.32;3.53;;;6.30;99.90;;;;;;4981707;28;20050;-80
2022/11/27 10:02:58;;;;;;;8.73;4.85;;;6.30;99.90;;;;;;4975240;28;20427;-80
2022/11/27 10:05:56;;;;;;;10.35;4.63;;;7.20;99.90;;;;;;4975417;28;20039;-80
2022/11/27 10:08:32;;;;;;;12.65;4.75;;;6.20;99.90;;;;;;4972050;28;20042;-81
2022/11/27 10:11:04;;;;;;;9.80;3.35;;;6.30;99.90;;;;;;4962641;28;20035;-84
2022/11/27 10:13:45;;;;;;;10.43;4.90;;;6.30;99.90;;;;;;4962696;28;20045;-84
2022/11/27 10:16:29;;;;;;;9.40;4.72;;;6.30;99.90;;;;;;4990565;28;20042;-83
2022/11/27 10:19:07;;;;;;;10.90;4.13;;;6.30;99.90;;;;;;4981936;28;20082;-83
2022/11/27 10:21:50;;;;;;;11.93;4.30;;;6.30;99.90;;;;;;4983886;28;20038;-83
2022/11/27 10:24:35;;;;;;;11.82;5.30;;;6.30;99.90;;;;;;4978326;28;20043;-82
2022/11/27 10:27:09;;;;;;;11.65;4.72;;;6.30;99.90;;;;;;4963452;28;20053;-81
2022/11/27 10:29:51;;;;;;;11.25;4.72;;;6.30;99.90;;;;;;4962816;28;20079;-81
2022/11/27 10:32:22;;;;;;;12.88;4.68;;;6.30;99.90;;;;;;4978674;28;20479;-80
2022/11/27 10:35:09;;;;;;;11.55;4.40;;;6.30;99.90;;;;;;4981732;28;20041;-81
2022/11/27 10:37:37;;;;;;;11.48;4.78;;;6.20;99.90;;;;;;4979667;28;20042;-81
2022/11/27 10:40:09;;;;;;;14.75;5.22;;;6.20;99.90;;;;;;4964504;28;20042;-81
2022/11/27 10:42:44;;;;;;;12.57;4.97;;;6.20;99.90;;;;;;4963622;28;20038;-80
2022/11/27 10:45:35;;;;;;;14.00;4.35;;;6.10;99.90;;;;;;4956164;28;20057;-79
2022/11/27 10:48:01;;;;;;;9.05;4.97;;;6.10;99.90;;;;;;4981939;28;20125;-81
2022/11/27 10:50:27;;;;;;;9.00;4.50;;;6.20;99.90;;;;;;4982890;28;20085;-81
2022/11/27 10:53:19;;;;;;;14.45;4.65;;;6.20;99.90;;;;;;4987266;28;20042;-80
2022/11/27 10:56:16;;;;;;;10.40;4.93;;;6.20;99.90;;;;;;4986102;28;20406;-80
2022/11/27 10:58:45;;;;;;;14.80;4.75;;;6.30;99.90;;;;;;4982040;28;20042;-81
2022/11/27 11:01:14;;;;;;;12.88;4.40;;;6.20;99.90;;;;;;4985768;28;20441;-82
2022/11/27 11:03:40;;;;;;;12.82;5.07;;;6.20;99.90;;;;;;4985606;28;20039;-80
2022/11/27 11:06:14;;;;;;;9.13;4.68;;;6.20;99.90;;;;;;4968904;28;20035;-80
2022/11/27 11:08:40;;;;;;;14.23;5.18;;;6.20;99.90;;;;;;4979110;28;20100;-81
2022/11/27 11:11:07;;;;;;;10.77;4.40;;;6.20;99.90;;;;;;4951143;28;20443;-80
2022/11/27 11:13:54;;;;;;;12.60;4.82;;;6.80;99.90;;;;;;4985367;28;20803;-80
2022/11/27 11:16:29;;;;;;;12.38;4.38;;;6.30;99.90;;;;;;4972859;28;20050;-80
2022/11/27 11:18:56;;;;;;;12.80;4.90;;;6.30;99.90;;;;;;4987757;28;20133;-81
2022/11/27 11:21:26;;;;;;;11.38;4.32;;;6.30;99.90;;;;;;4986070;28;20048;-82
2022/11/27 11:24:00;;;;;;;9.18;4.45;;;6.30;99.90;;;;;;4982633;28;20085;-84
2022/11/27 11:26:43;;;;;;;12.88;4.63;;;6.30;99.90;;;;;;4981283;28;20133;-81
2022/11/27 11:29:39;;;;;;;9.15;4.93;;;6.30;99.90;;;;;;4992444;28;20491;-83
2022/11/27 11:32:09;;;;;;;12.35;4.93;;;6.30;99.90;;;;;;4982832;28;20042;-83
2022/11/27 11:34:40;;;;;;;16.35;4.93;;;6.30;99.90;;;;;;4986449;28;20050;-81
2022/11/27 11:37:17;;;;;;;10.23;4.90;;;6.40;99.90;;;;;;4970749;28;20322;-83
2022/11/27 11:40:15;;;;;;;13.30;5.30;;;6.30;99.90;;;;;;4986315;28;20051;-81
2022/11/27 11:42:59;;;;;;;11.85;5.30;;;6.30;99.90;;;;;;4952528;28;20043;-81
2022/11/27 11:45:27;;;;;;;17.85;5.40;;;6.30;99.90;;;;;;4975063;28;20038;-80
2022/11/27 11:47:58;;;;;;;14.80;5.38;;;6.30;99.90;;;;;;4986300;28;20088;-79
2022/11/27 11:50:43;;;;;;;14.38;5.00;;;6.30;99.90;;;;;;4987826;28;20363;-79
2022/11/27 11:53:34;;;;;;;10.70;4.38;;;6.30;99.90;;;;;;4987692;28;20117;-79
2022/11/27 11:56:31;;;;;;;11.57;5.22;;;6.40;99.90;;;;;;4948296;28;20051;-79
2022/11/27 11:59:17;;;;;;;15.15;6.13;;;6.40;99.90;;;;;;4998794;28;20054;-78
2022/11/27 12:02:17;;;;;;;12.63;4.75;;;6.40;99.90;;;;;;4980839;28;20054;-85
2022/11/27 12:05:02;;;;;;;11.85;4.78;;;6.40;99.90;;;;;;4984046;28;20042;-82
2022/11/27 12:07:45;;;;;;;11.32;4.72;;;6.40;99.90;;;;;;4995953;28;20154;-80
2022/11/27 12:10:29;;;;;;;11.07;4.57;;;6.50;99.90;;;;;;4988136;28;20047;-80
2022/11/27 12:12:55;;;;;;;9.73;5.00;;;6.40;99.90;;;;;;4984357;28;20516;-79
2022/11/27 12:15:24;;;;;;;10.60;4.50;;;6.60;99.90;;;;;;4972458;28;20133;-80
2022/11/27 12:18:04;;;;;;;10.45;4.45;;;6.40;99.90;;;;;;4999234;28;20097;-81
2022/11/27 12:20:42;;;;;;;8.85;4.70;;;6.40;99.90;;;;;;4980279;28;20406;-81
2022/11/27 12:23:45;;;;;;;9.65;3.92;;;6.40;99.90;;;;;;4978008;28;20038;-81
2022/11/27 12:26:14;;;;;;;11.00;4.30;;;6.40;99.90;;;;;;4986455;28;20058;-80
2022/11/27 12:28:54;;;;;;;11.68;4.82;;;6.40;99.90;;;;;;4972354;28;20066;-82
2022/11/27 12:31:38;;;;;;;9.95;4.53;;;6.40;99.90;;;;;;4984754;28;20053;-80
2022/11/27 12:34:37;;;;;;;14.40;5.45;;;6.40;99.90;;;;;;4963127;28;20082;-76
2022/11/27 12:37:30;;;;;;;10.32;5.00;;;6.40;99.90;;;;;;4989544;28;21635;-76
2022/11/27 12:40:03;;;;;;;21.45;6.10;;;6.40;99.90;;;;;;4971179;28;20049;-79
2022/11/27 12:42:43;;;;;;;11.35;4.55;;;6.40;99.90;;;;;;4988154;28;20034;-78
2022/11/27 12:45:27;;;;;;;10.57;4.45;;;6.40;99.90;;;;;;4983273;28;20046;-78
2022/11/27 12:47:53;;;;;;;11.07;5.10;;;6.40;99.90;;;;;;4986513;28;20057;-80
2022/11/27 12:50:39;;;;;;;10.13;4.97;;;7.20;99.90;;;;;;4991966;28;20042;-78
2022/11/27 12:53:10;;;;;;;9.60;5.13;;;6.50;99.90;;;;;;4991796;28;20038;-78
2022/11/27 12:55:39;;;;;;;15.38;5.30;;;6.40;99.90;;;;;;4991667;28;20034;-79
2022/11/27 12:58:09;;;;;;;12.20;4.70;;;6.40;99.90;;;;;;4983808;28;20158;-77
2022/11/27 13:00:39;;;;;;;9.43;4.47;;;6.50;99.90;;;;;;4966227;28;20527;-80
2022/11/27 13:03:12;;;;;;;13.02;4.88;;;7.10;99.90;;;;;;4967289;28;20050;-79
2022/11/27 13:05:45;;;;;;;12.63;4.90;;;6.40;99.90;;;;;;4986411;28;20050;-79
2022/11/27 13:08:14;;;;;;;11.45;4.40;;;7.20;99.90;;;;;;4989188;28;20498;-79
2022/11/27 13:11:03;;;;;;;12.00;4.97;;;6.40;99.90;;;;;;4981525;28;20046;-80
2022/11/27 13:13:37;;;;;;;10.40;4.55;;;6.40;99.90;;;;;;4989427;28;20049;-80